sensor_id;sensor_type;location;lat;lon;timestamp;P1;durP1;ratioP1;P2;durP2;ratioP2
13805;SDS011;6974;53.606;9.872;2023-05-16T00:01:20;5.83;;;3.00;;
13805;SDS011;6974;53.606;9.872;2023-05-16T00:03:48;3.93;;;3.47;;
13805;SDS011;6974;53.606;9.872;2023-05-16T00:06:17;4.63;;;3.43;;
13805;SDS011;6974;53.606;9.872;2023-05-16T00:08:44;4.73;;;3.10;;
13805;SDS011;6974;53.606;9.872;2023-05-16T00:11:11;3.93;;;3.37;;
13805;SDS011;6974;53.606;9.872;2023-05-16T00:13:37;3.77;;;3.47;;
13805;SDS011;6974;53.606;9.872;2023-05-16T00:16:06;3.57;;;3.20;;
13805;SDS011;6974;53.606;9.872;2023-05-16T00:18:34;4.40;;;3.60;;
13805;SDS011;6974;53.606;9.872;2023-05-16T00:21:01;5.37;;;3.73;;
13805;SDS011;6974;53.606;9.872;2023-05-16T00:23:30;4.37;;;3.30;;
13805;SDS011;6974;53.606;9.872;2023-05-16T00:25:57;4.13;;;3.60;;
13805;SDS011;6974;53.606;9.872;2023-05-16T00:28:24;5.07;;;3.37;;
13805;SDS011;6974;53.606;9.872;2023-05-16T00:30:51;3.30;;;2.80;;
13805;SDS011;6974;53.606;9.872;2023-05-16T00:33:18;3.50;;;3.07;;
13805;SDS011;6974;53.606;9.872;2023-05-16T00:35:44;5.17;;;3.33;;
13805;SDS011;6974;53.606;9.872;2023-05-16T00:38:11;5.10;;;3.03;;
13805;SDS011;6974;53.606;9.872;2023-05-16T00:40:39;4.00;;;3.10;;
13805;SDS011;6974;53.606;9.872;2023-05-16T00:43:06;5.13;;;3.50;;
13805;SDS011;6974;53.606;9.872;2023-05-16T00:45:33;4.13;;;3.13;;
13805;SDS011;6974;53.606;9.872;2023-05-16T00:48:00;4.80;;;3.37;;
13805;SDS011;6974;53.606;9.872;2023-05-16T00:50:27;5.23;;;3.70;;
13805;SDS011;6974;53.606;9.872;2023-05-16T00:52:54;4.17;;;3.50;;
13805;SDS011;6974;53.606;9.872;2023-05-16T00:55:21;4.53;;;3.40;;
13805;SDS011;6974;53.606;9.872;2023-05-16T00:57:50;5.20;;;3.27;;
13805;SDS011;6974;53.606;9.872;2023-05-16T01:00:17;5.83;;;3.10;;
13805;SDS011;6974;53.606;9.872;2023-05-16T01:02:45;5.53;;;3.50;;
13805;SDS011;6974;53.606;9.872;2023-05-16T01:05:12;5.20;;;3.43;;
13805;SDS011;6974;53.606;9.872;2023-05-16T01:07:39;4.07;;;3.37;;
13805;SDS011;6974;53.606;9.872;2023-05-16T01:10:07;6.47;;;3.27;;
13805;SDS011;6974;53.606;9.872;2023-05-16T01:12:36;4.60;;;3.03;;
13805;SDS011;6974;53.606;9.872;2023-05-16T01:15:08;3.37;;;2.40;;
13805;SDS011;6974;53.606;9.872;2023-05-16T01:17:42;3.97;;;2.90;;
13805;SDS011;6974;53.606;9.872;2023-05-16T01:20:23;3.07;;;2.60;;
13805;SDS011;6974;53.606;9.872;2023-05-16T01:23:05;4.47;;;2.63;;
13805;SDS011;6974;53.606;9.872;2023-05-16T01:25:52;5.33;;;2.70;;
13805;SDS011;6974;53.606;9.872;2023-05-16T01:28:24;5.30;;;2.87;;
13805;SDS011;6974;53.606;9.872;2023-05-16T01:30:52;7.77;;;3.13;;
13805;SDS011;6974;53.606;9.872;2023-05-16T01:33:19;6.00;;;3.63;;
13805;SDS011;6974;53.606;9.872;2023-05-16T01:35:48;7.00;;;3.53;;
13805;SDS011;6974;53.606;9.872;2023-05-16T01:38:23;7.33;;;3.43;;
13805;SDS011;6974;53.606;9.872;2023-05-16T01:40:53;9.00;;;4.03;;
13805;SDS011;6974;53.606;9.872;2023-05-16T01:43:28;8.67;;;4.70;;
13805;SDS011;6974;53.606;9.872;2023-05-16T01:46:01;10.63;;;4.93;;
13805;SDS011;6974;53.606;9.872;2023-05-16T01:48:31;9.17;;;4.37;;
13805;SDS011;6974;53.606;9.872;2023-05-16T01:51:04;11.73;;;3.80;;
13805;SDS011;6974;53.606;9.872;2023-05-16T01:53:34;10.13;;;3.77;;
13805;SDS011;6974;53.606;9.872;2023-05-16T01:56:03;5.47;;;2.70;;
13805;SDS011;6974;53.606;9.872;2023-05-16T01:58:36;7.10;;;2.80;;
13805;SDS011;6974;53.606;9.872;2023-05-16T02:01:04;8.53;;;3.37;;
13805;SDS011;6974;53.606;9.872;2023-05-16T02:03:31;7.77;;;2.80;;
13805;SDS011;6974;53.606;9.872;2023-05-16T02:05:58;6.63;;;2.50;;
13805;SDS011;6974;53.606;9.872;2023-05-16T02:08:26;11.27;;;3.00;;
13805;SDS011;6974;53.606;9.872;2023-05-16T02:10:54;9.73;;;3.10;;
13805;SDS011;6974;53.606;9.872;2023-05-16T02:13:20;5.93;;;2.93;;
13805;SDS011;6974;53.606;9.872;2023-05-16T02:15:49;7.50;;;2.83;;
13805;SDS011;6974;53.606;9.872;2023-05-16T02:18:17;7.60;;;2.87;;
13805;SDS011;6974;53.606;9.872;2023-05-16T02:20:43;8.70;;;2.70;;
13805;SDS011;6974;53.606;9.872;2023-05-16T02:23:11;9.00;;;2.97;;
13805;SDS011;6974;53.606;9.872;2023-05-16T02:25:38;9.90;;;2.60;;
13805;SDS011;6974;53.606;9.872;2023-05-16T02:28:05;9.00;;;3.00;;
13805;SDS011;6974;53.606;9.872;2023-05-16T02:30:32;9.43;;;2.93;;
13805;SDS011;6974;53.606;9.872;2023-05-16T02:33:00;6.63;;;2.77;;
13805;SDS011;6974;53.606;9.872;2023-05-16T02:35:27;10.63;;;2.93;;
13805;SDS011;6974;53.606;9.872;2023-05-16T02:37:54;9.73;;;3.17;;
13805;SDS011;6974;53.606;9.872;2023-05-16T02:40:21;6.83;;;2.87;;
13805;SDS011;6974;53.606;9.872;2023-05-16T02:42:48;10.27;;;3.10;;
13805;SDS011;6974;53.606;9.872;2023-05-16T02:45:14;11.47;;;2.80;;
13805;SDS011;6974;53.606;9.872;2023-05-16T02:47:41;11.13;;;3.87;;
13805;SDS011;6974;53.606;9.872;2023-05-16T02:50:10;10.93;;;3.63;;
13805;SDS011;6974;53.606;9.872;2023-05-16T02:52:36;8.50;;;3.10;;
13805;SDS011;6974;53.606;9.872;2023-05-16T02:55:04;11.43;;;3.50;;
13805;SDS011;6974;53.606;9.872;2023-05-16T02:57:31;7.80;;;3.20;;
13805;SDS011;6974;53.606;9.872;2023-05-16T02:59:58;10.77;;;3.47;;
13805;SDS011;6974;53.606;9.872;2023-05-16T03:02:25;10.67;;;3.57;;
13805;SDS011;6974;53.606;9.872;2023-05-16T03:04:52;9.33;;;2.90;;
13805;SDS011;6974;53.606;9.872;2023-05-16T03:07:20;12.23;;;3.57;;
13805;SDS011;6974;53.606;9.872;2023-05-16T03:09:47;10.83;;;2.87;;
13805;SDS011;6974;53.606;9.872;2023-05-16T03:12:14;9.77;;;2.80;;
13805;SDS011;6974;53.606;9.872;2023-05-16T03:14:40;11.70;;;3.10;;
13805;SDS011;6974;53.606;9.872;2023-05-16T03:17:07;9.10;;;2.93;;
13805;SDS011;6974;53.606;9.872;2023-05-16T03:19:34;9.63;;;3.03;;
13805;SDS011;6974;53.606;9.872;2023-05-16T03:22:01;11.90;;;3.20;;
13805;SDS011;6974;53.606;9.872;2023-05-16T03:24:29;9.43;;;3.43;;
13805;SDS011;6974;53.606;9.872;2023-05-16T03:26:56;12.50;;;3.40;;
13805;SDS011;6974;53.606;9.872;2023-05-16T03:29:24;12.23;;;3.23;;
13805;SDS011;6974;53.606;9.872;2023-05-16T03:31:51;11.57;;;3.67;;
13805;SDS011;6974;53.606;9.872;2023-05-16T03:34:18;13.23;;;4.27;;
13805;SDS011;6974;53.606;9.872;2023-05-16T03:36:45;12.83;;;3.10;;
13805;SDS011;6974;53.606;9.872;2023-05-16T03:39:13;9.70;;;3.47;;
13805;SDS011;6974;53.606;9.872;2023-05-16T03:41:41;9.03;;;3.33;;
13805;SDS011;6974;53.606;9.872;2023-05-16T03:44:08;14.40;;;3.63;;
13805;SDS011;6974;53.606;9.872;2023-05-16T03:46:35;8.90;;;3.10;;
13805;SDS011;6974;53.606;9.872;2023-05-16T03:49:02;8.83;;;3.30;;
13805;SDS011;6974;53.606;9.872;2023-05-16T03:51:28;14.50;;;3.70;;
13805;SDS011;6974;53.606;9.872;2023-05-16T03:53:55;12.13;;;3.27;;
13805;SDS011;6974;53.606;9.872;2023-05-16T03:56:22;12.27;;;3.70;;
13805;SDS011;6974;53.606;9.872;2023-05-16T03:58:51;19.60;;;3.37;;
13805;SDS011;6974;53.606;9.872;2023-05-16T04:01:18;13.50;;;3.23;;
13805;SDS011;6974;53.606;9.872;2023-05-16T04:03:45;12.73;;;3.50;;
13805;SDS011;6974;53.606;9.872;2023-05-16T04:06:11;17.43;;;4.07;;
13805;SDS011;6974;53.606;9.872;2023-05-16T04:08:38;14.03;;;3.60;;
13805;SDS011;6974;53.606;9.872;2023-05-16T04:11:07;14.97;;;4.67;;
13805;SDS011;6974;53.606;9.872;2023-05-16T04:13:34;12.70;;;3.53;;
13805;SDS011;6974;53.606;9.872;2023-05-16T04:16:02;13.40;;;3.30;;
13805;SDS011;6974;53.606;9.872;2023-05-16T04:18:30;11.03;;;2.93;;
13805;SDS011;6974;53.606;9.872;2023-05-16T04:20:57;12.27;;;3.93;;
13805;SDS011;6974;53.606;9.872;2023-05-16T04:23:24;10.63;;;3.20;;
13805;SDS011;6974;53.606;9.872;2023-05-16T04:25:50;13.10;;;3.53;;
13805;SDS011;6974;53.606;9.872;2023-05-16T04:28:18;14.60;;;4.20;;
13805;SDS011;6974;53.606;9.872;2023-05-16T04:30:45;9.87;;;3.27;;
13805;SDS011;6974;53.606;9.872;2023-05-16T04:33:14;12.47;;;3.07;;
13805;SDS011;6974;53.606;9.872;2023-05-16T04:35:41;9.73;;;2.70;;
13805;SDS011;6974;53.606;9.872;2023-05-16T04:38:08;9.17;;;2.53;;
13805;SDS011;6974;53.606;9.872;2023-05-16T04:40:34;11.90;;;3.33;;
13805;SDS011;6974;53.606;9.872;2023-05-16T04:43:01;12.20;;;3.27;;
13805;SDS011;6974;53.606;9.872;2023-05-16T04:45:28;11.80;;;3.17;;
13805;SDS011;6974;53.606;9.872;2023-05-16T04:47:55;13.50;;;3.30;;
13805;SDS011;6974;53.606;9.872;2023-05-16T04:50:23;10.40;;;2.60;;
13805;SDS011;6974;53.606;9.872;2023-05-16T04:52:50;14.70;;;3.10;;
13805;SDS011;6974;53.606;9.872;2023-05-16T04:55:17;11.23;;;2.90;;
13805;SDS011;6974;53.606;9.872;2023-05-16T04:57:44;7.13;;;2.60;;
13805;SDS011;6974;53.606;9.872;2023-05-16T05:00:12;11.90;;;3.27;;
13805;SDS011;6974;53.606;9.872;2023-05-16T05:02:40;8.97;;;2.40;;
13805;SDS011;6974;53.606;9.872;2023-05-16T05:05:08;10.10;;;2.60;;
13805;SDS011;6974;53.606;9.872;2023-05-16T05:07:36;8.13;;;2.63;;
13805;SDS011;6974;53.606;9.872;2023-05-16T05:10:03;10.93;;;2.90;;
13805;SDS011;6974;53.606;9.872;2023-05-16T05:12:31;14.67;;;3.53;;
13805;SDS011;6974;53.606;9.872;2023-05-16T05:14:58;16.33;;;3.77;;
13805;SDS011;6974;53.606;9.872;2023-05-16T05:17:25;11.43;;;3.13;;
13805;SDS011;6974;53.606;9.872;2023-05-16T05:19:52;9.30;;;2.63;;
13805;SDS011;6974;53.606;9.872;2023-05-16T05:22:19;8.77;;;2.80;;
13805;SDS011;6974;53.606;9.872;2023-05-16T05:24:47;9.60;;;2.63;;
13805;SDS011;6974;53.606;9.872;2023-05-16T05:27:14;12.20;;;3.10;;
13805;SDS011;6974;53.606;9.872;2023-05-16T05:29:41;8.73;;;2.70;;
13805;SDS011;6974;53.606;9.872;2023-05-16T05:32:08;11.40;;;3.03;;
13805;SDS011;6974;53.606;9.872;2023-05-16T05:34:35;10.00;;;3.33;;
13805;SDS011;6974;53.606;9.872;2023-05-16T05:37:01;10.50;;;3.33;;
13805;SDS011;6974;53.606;9.872;2023-05-16T05:39:29;9.40;;;2.53;;
13805;SDS011;6974;53.606;9.872;2023-05-16T05:41:57;13.47;;;3.57;;
13805;SDS011;6974;53.606;9.872;2023-05-16T05:44:24;12.53;;;3.37;;
13805;SDS011;6974;53.606;9.872;2023-05-16T05:46:50;9.67;;;3.17;;
13805;SDS011;6974;53.606;9.872;2023-05-16T05:49:17;10.37;;;2.63;;
13805;SDS011;6974;53.606;9.872;2023-05-16T05:51:44;10.93;;;3.30;;
13805;SDS011;6974;53.606;9.872;2023-05-16T05:54:11;10.77;;;2.60;;
13805;SDS011;6974;53.606;9.872;2023-05-16T05:56:39;10.47;;;2.97;;
13805;SDS011;6974;53.606;9.872;2023-05-16T05:59:07;8.73;;;2.80;;
13805;SDS011;6974;53.606;9.872;2023-05-16T06:01:34;11.83;;;2.60;;
13805;SDS011;6974;53.606;9.872;2023-05-16T06:04:01;9.73;;;2.50;;
13805;SDS011;6974;53.606;9.872;2023-05-16T06:06:28;10.80;;;3.37;;
13805;SDS011;6974;53.606;9.872;2023-05-16T06:08:55;10.63;;;2.57;;
13805;SDS011;6974;53.606;9.872;2023-05-16T06:11:22;11.17;;;2.67;;
13805;SDS011;6974;53.606;9.872;2023-05-16T06:13:49;9.40;;;2.47;;
13805;SDS011;6974;53.606;9.872;2023-05-16T06:16:17;8.47;;;2.80;;
13805;SDS011;6974;53.606;9.872;2023-05-16T06:18:45;10.40;;;3.17;;
13805;SDS011;6974;53.606;9.872;2023-05-16T06:21:12;9.03;;;2.77;;
13805;SDS011;6974;53.606;9.872;2023-05-16T06:23:39;10.33;;;2.50;;
13805;SDS011;6974;53.606;9.872;2023-05-16T06:26:06;7.83;;;3.00;;
13805;SDS011;6974;53.606;9.872;2023-05-16T06:28:33;12.07;;;3.43;;
13805;SDS011;6974;53.606;9.872;2023-05-16T06:31:00;10.67;;;2.80;;
13805;SDS011;6974;53.606;9.872;2023-05-16T06:33:28;9.73;;;3.00;;
13805;SDS011;6974;53.606;9.872;2023-05-16T06:35:55;8.73;;;2.60;;
13805;SDS011;6974;53.606;9.872;2023-05-16T06:38:22;11.00;;;2.87;;
13805;SDS011;6974;53.606;9.872;2023-05-16T06:40:52;10.97;;;3.27;;
13805;SDS011;6974;53.606;9.872;2023-05-16T06:43:18;9.17;;;2.73;;
13805;SDS011;6974;53.606;9.872;2023-05-16T06:45:45;13.50;;;3.33;;
13805;SDS011;6974;53.606;9.872;2023-05-16T06:48:12;7.80;;;2.93;;
13805;SDS011;6974;53.606;9.872;2023-05-16T06:50:41;9.50;;;3.00;;
13805;SDS011;6974;53.606;9.872;2023-05-16T06:53:08;10.30;;;2.67;;
13805;SDS011;6974;53.606;9.872;2023-05-16T06:55:36;8.27;;;2.40;;
13805;SDS011;6974;53.606;9.872;2023-05-16T06:58:03;8.23;;;2.77;;
13805;SDS011;6974;53.606;9.872;2023-05-16T07:00:30;6.80;;;2.37;;
13805;SDS011;6974;53.606;9.872;2023-05-16T07:02:57;5.47;;;2.03;;
13805;SDS011;6974;53.606;9.872;2023-05-16T07:05:24;6.57;;;2.40;;
13805;SDS011;6974;53.606;9.872;2023-05-16T07:07:52;8.17;;;2.40;;
13805;SDS011;6974;53.606;9.872;2023-05-16T07:10:19;9.17;;;2.23;;
13805;SDS011;6974;53.606;9.872;2023-05-16T07:12:46;10.07;;;2.60;;
13805;SDS011;6974;53.606;9.872;2023-05-16T07:15:13;9.40;;;3.37;;
13805;SDS011;6974;53.606;9.872;2023-05-16T07:17:40;6.00;;;2.20;;
13805;SDS011;6974;53.606;9.872;2023-05-16T07:20:07;4.93;;;2.10;;
13805;SDS011;6974;53.606;9.872;2023-05-16T07:22:37;5.37;;;2.37;;
13805;SDS011;6974;53.606;9.872;2023-05-16T07:25:06;9.57;;;2.50;;
13805;SDS011;6974;53.606;9.872;2023-05-16T07:27:36;8.90;;;2.37;;
13805;SDS011;6974;53.606;9.872;2023-05-16T07:30:05;6.20;;;2.37;;
13805;SDS011;6974;53.606;9.872;2023-05-16T07:32:33;5.13;;;1.83;;
13805;SDS011;6974;53.606;9.872;2023-05-16T07:35:00;8.87;;;2.13;;
13805;SDS011;6974;53.606;9.872;2023-05-16T07:37:27;6.60;;;2.47;;
13805;SDS011;6974;53.606;9.872;2023-05-16T07:39:54;7.20;;;2.10;;
13805;SDS011;6974;53.606;9.872;2023-05-16T07:42:22;5.87;;;2.00;;
13805;SDS011;6974;53.606;9.872;2023-05-16T07:44:49;7.97;;;2.43;;
13805;SDS011;6974;53.606;9.872;2023-05-16T07:47:16;5.83;;;2.00;;
13805;SDS011;6974;53.606;9.872;2023-05-16T07:49:43;10.73;;;2.47;;
13805;SDS011;6974;53.606;9.872;2023-05-16T07:52:10;6.47;;;2.03;;
13805;SDS011;6974;53.606;9.872;2023-05-16T07:54:37;8.30;;;2.00;;
13805;SDS011;6974;53.606;9.872;2023-05-16T07:57:04;5.57;;;1.97;;
13805;SDS011;6974;53.606;9.872;2023-05-16T07:59:32;6.47;;;1.77;;
13805;SDS011;6974;53.606;9.872;2023-05-16T08:01:59;6.97;;;2.50;;
13805;SDS011;6974;53.606;9.872;2023-05-16T08:04:26;6.17;;;2.50;;
13805;SDS011;6974;53.606;9.872;2023-05-16T08:06:53;11.53;;;2.60;;
13805;SDS011;6974;53.606;9.872;2023-05-16T08:09:20;9.77;;;2.47;;
13805;SDS011;6974;53.606;9.872;2023-05-16T08:11:46;6.37;;;2.30;;
13805;SDS011;6974;53.606;9.872;2023-05-16T08:14:13;8.50;;;2.90;;
13805;SDS011;6974;53.606;9.872;2023-05-16T08:16:41;8.90;;;2.57;;
13805;SDS011;6974;53.606;9.872;2023-05-16T08:19:08;8.97;;;2.40;;
13805;SDS011;6974;53.606;9.872;2023-05-16T08:21:35;8.47;;;2.73;;
13805;SDS011;6974;53.606;9.872;2023-05-16T08:24:03;8.50;;;2.60;;
13805;SDS011;6974;53.606;9.872;2023-05-16T08:26:31;5.90;;;2.30;;
13805;SDS011;6974;53.606;9.872;2023-05-16T08:28:58;5.13;;;2.20;;
13805;SDS011;6974;53.606;9.872;2023-05-16T08:31:25;8.53;;;2.40;;
13805;SDS011;6974;53.606;9.872;2023-05-16T08:33:54;5.93;;;2.20;;
13805;SDS011;6974;53.606;9.872;2023-05-16T08:36:20;8.33;;;2.07;;
13805;SDS011;6974;53.606;9.872;2023-05-16T08:38:48;6.63;;;2.10;;
13805;SDS011;6974;53.606;9.872;2023-05-16T08:41:15;5.10;;;2.13;;
13805;SDS011;6974;53.606;9.872;2023-05-16T08:43:42;9.07;;;2.40;;
13805;SDS011;6974;53.606;9.872;2023-05-16T08:46:09;5.73;;;2.20;;
13805;SDS011;6974;53.606;9.872;2023-05-16T08:48:36;5.40;;;2.17;;
13805;SDS011;6974;53.606;9.872;2023-05-16T08:51:06;5.03;;;2.40;;
13805;SDS011;6974;53.606;9.872;2023-05-16T08:53:37;5.27;;;1.90;;
13805;SDS011;6974;53.606;9.872;2023-05-16T08:56:10;8.40;;;2.10;;
13805;SDS011;6974;53.606;9.872;2023-05-16T08:58:38;8.07;;;2.23;;
13805;SDS011;6974;53.606;9.872;2023-05-16T09:01:06;8.03;;;2.30;;
13805;SDS011;6974;53.606;9.872;2023-05-16T09:03:34;4.53;;;1.97;;
13805;SDS011;6974;53.606;9.872;2023-05-16T09:06:02;7.73;;;2.20;;
13805;SDS011;6974;53.606;9.872;2023-05-16T09:08:31;7.73;;;2.00;;
13805;SDS011;6974;53.606;9.872;2023-05-16T09:10:59;4.37;;;2.07;;
13805;SDS011;6974;53.606;9.872;2023-05-16T09:13:26;4.87;;;2.17;;
13805;SDS011;6974;53.606;9.872;2023-05-16T09:16:09;6.93;;;2.30;;
13805;SDS011;6974;53.606;9.872;2023-05-16T09:18:37;8.40;;;2.20;;
13805;SDS011;6974;53.606;9.872;2023-05-16T09:21:05;8.93;;;2.43;;
13805;SDS011;6974;53.606;9.872;2023-05-16T09:23:34;12.00;;;3.00;;
13805;SDS011;6974;53.606;9.872;2023-05-16T09:26:01;10.60;;;2.67;;
13805;SDS011;6974;53.606;9.872;2023-05-16T09:28:29;9.80;;;3.00;;
13805;SDS011;6974;53.606;9.872;2023-05-16T09:30:56;4.87;;;2.10;;
13805;SDS011;6974;53.606;9.872;2023-05-16T09:33:26;5.93;;;2.00;;
13805;SDS011;6974;53.606;9.872;2023-05-16T09:35:54;7.03;;;2.10;;
13805;SDS011;6974;53.606;9.872;2023-05-16T09:38:22;6.20;;;2.03;;
13805;SDS011;6974;53.606;9.872;2023-05-16T09:40:52;6.57;;;2.10;;
13805;SDS011;6974;53.606;9.872;2023-05-16T09:43:21;5.20;;;1.77;;
13805;SDS011;6974;53.606;9.872;2023-05-16T09:45:50;5.37;;;2.03;;
13805;SDS011;6974;53.606;9.872;2023-05-16T09:48:17;5.77;;;2.30;;
13805;SDS011;6974;53.606;9.872;2023-05-16T09:50:46;5.13;;;2.33;;
13805;SDS011;6974;53.606;9.872;2023-05-16T09:53:17;6.47;;;2.60;;
13805;SDS011;6974;53.606;9.872;2023-05-16T09:55:53;10.07;;;2.43;;
13805;SDS011;6974;53.606;9.872;2023-05-16T09:58:27;6.43;;;2.73;;
13805;SDS011;6974;53.606;9.872;2023-05-16T10:00:55;10.10;;;2.70;;
13805;SDS011;6974;53.606;9.872;2023-05-16T10:03:23;7.30;;;2.50;;
13805;SDS011;6974;53.606;9.872;2023-05-16T10:05:51;10.13;;;2.87;;
13805;SDS011;6974;53.606;9.872;2023-05-16T10:08:19;7.03;;;2.27;;
13805;SDS011;6974;53.606;9.872;2023-05-16T10:10:47;7.63;;;3.07;;
13805;SDS011;6974;53.606;9.872;2023-05-16T10:13:18;6.90;;;2.80;;
13805;SDS011;6974;53.606;9.872;2023-05-16T10:15:47;10.10;;;2.87;;
13805;SDS011;6974;53.606;9.872;2023-05-16T10:18:15;9.90;;;2.80;;
13805;SDS011;6974;53.606;9.872;2023-05-16T10:20:44;9.90;;;2.67;;
13805;SDS011;6974;53.606;9.872;2023-05-16T10:23:15;8.53;;;2.83;;
13805;SDS011;6974;53.606;9.872;2023-05-16T10:25:44;5.73;;;2.30;;
13805;SDS011;6974;53.606;9.872;2023-05-16T10:28:12;7.30;;;2.80;;
13805;SDS011;6974;53.606;9.872;2023-05-16T10:30:41;7.37;;;2.23;;
13805;SDS011;6974;53.606;9.872;2023-05-16T10:33:10;6.90;;;2.40;;
13805;SDS011;6974;53.606;9.872;2023-05-16T10:35:38;7.93;;;2.80;;
13805;SDS011;6974;53.606;9.872;2023-05-16T10:38:06;7.57;;;2.40;;
13805;SDS011;6974;53.606;9.872;2023-05-16T10:40:35;8.67;;;2.40;;
13805;SDS011;6974;53.606;9.872;2023-05-16T10:43:04;6.87;;;2.23;;
13805;SDS011;6974;53.606;9.872;2023-05-16T10:45:32;7.93;;;1.80;;
13805;SDS011;6974;53.606;9.872;2023-05-16T10:48:02;7.30;;;2.40;;
13805;SDS011;6974;53.606;9.872;2023-05-16T10:50:34;8.77;;;2.53;;
13805;SDS011;6974;53.606;9.872;2023-05-16T10:53:12;8.07;;;2.80;;
13805;SDS011;6974;53.606;9.872;2023-05-16T10:55:43;10.53;;;2.47;;
13805;SDS011;6974;53.606;9.872;2023-05-16T10:58:11;10.57;;;2.57;;
13805;SDS011;6974;53.606;9.872;2023-05-16T11:00:38;8.40;;;2.57;;
13805;SDS011;6974;53.606;9.872;2023-05-16T11:03:18;7.20;;;2.37;;
13805;SDS011;6974;53.606;9.872;2023-05-16T11:05:49;6.23;;;2.03;;
13805;SDS011;6974;53.606;9.872;2023-05-16T11:08:18;6.57;;;1.80;;
13805;SDS011;6974;53.606;9.872;2023-05-16T11:10:45;3.83;;;1.60;;
13805;SDS011;6974;53.606;9.872;2023-05-16T11:13:12;4.13;;;1.67;;
13805;SDS011;6974;53.606;9.872;2023-05-16T11:15:43;4.90;;;1.70;;
13805;SDS011;6974;53.606;9.872;2023-05-16T11:18:14;4.60;;;1.90;;
13805;SDS011;6974;53.606;9.872;2023-05-16T11:20:42;4.37;;;1.80;;
13805;SDS011;6974;53.606;9.872;2023-05-16T11:23:19;5.13;;;1.83;;
13805;SDS011;6974;53.606;9.872;2023-05-16T11:25:47;5.37;;;2.30;;
13805;SDS011;6974;53.606;9.872;2023-05-16T11:28:18;7.20;;;2.63;;
13805;SDS011;6974;53.606;9.872;2023-05-16T11:30:46;4.77;;;1.90;;
13805;SDS011;6974;53.606;9.872;2023-05-16T11:33:16;3.77;;;1.77;;
13805;SDS011;6974;53.606;9.872;2023-05-16T11:35:46;3.00;;;1.70;;
13805;SDS011;6974;53.606;9.872;2023-05-16T11:38:28;2.13;;;1.40;;
13805;SDS011;6974;53.606;9.872;2023-05-16T11:41:00;4.17;;;1.70;;
13805;SDS011;6974;53.606;9.872;2023-05-16T11:43:28;3.60;;;1.80;;
13805;SDS011;6974;53.606;9.872;2023-05-16T11:45:55;5.67;;;2.03;;
13805;SDS011;6974;53.606;9.872;2023-05-16T11:48:24;6.37;;;2.30;;
13805;SDS011;6974;53.606;9.872;2023-05-16T11:50:51;2.27;;;1.37;;
13805;SDS011;6974;53.606;9.872;2023-05-16T11:53:19;5.50;;;1.37;;
13805;SDS011;6974;53.606;9.872;2023-05-16T11:55:46;5.43;;;1.80;;
13805;SDS011;6974;53.606;9.872;2023-05-16T11:58:16;6.27;;;2.30;;
13805;SDS011;6974;53.606;9.872;2023-05-16T12:00:46;6.53;;;2.30;;
13805;SDS011;6974;53.606;9.872;2023-05-16T12:03:13;9.43;;;2.13;;
13805;SDS011;6974;53.606;9.872;2023-05-16T12:05:49;6.10;;;2.40;;
13805;SDS011;6974;53.606;9.872;2023-05-16T12:08:17;4.97;;;1.80;;
13805;SDS011;6974;53.606;9.872;2023-05-16T12:10:45;4.00;;;1.57;;
13805;SDS011;6974;53.606;9.872;2023-05-16T12:13:14;5.50;;;2.00;;
13805;SDS011;6974;53.606;9.872;2023-05-16T12:15:42;6.03;;;2.00;;
13805;SDS011;6974;53.606;9.872;2023-05-16T12:18:09;4.60;;;1.80;;
13805;SDS011;6974;53.606;9.872;2023-05-16T12:20:36;3.27;;;1.63;;
13805;SDS011;6974;53.606;9.872;2023-05-16T12:23:06;4.20;;;1.70;;
13805;SDS011;6974;53.606;9.872;2023-05-16T12:25:36;4.50;;;1.80;;
13805;SDS011;6974;53.606;9.872;2023-05-16T12:28:07;3.83;;;1.70;;
13805;SDS011;6974;53.606;9.872;2023-05-16T12:30:38;4.20;;;1.50;;
13805;SDS011;6974;53.606;9.872;2023-05-16T12:33:07;2.27;;;1.50;;
13805;SDS011;6974;53.606;9.872;2023-05-16T12:35:36;3.33;;;1.63;;
13805;SDS011;6974;53.606;9.872;2023-05-16T12:38:05;5.73;;;2.07;;
13805;SDS011;6974;53.606;9.872;2023-05-16T12:40:33;5.97;;;2.40;;
13805;SDS011;6974;53.606;9.872;2023-05-16T12:43:02;5.17;;;2.30;;
13805;SDS011;6974;53.606;9.872;2023-05-16T12:45:28;8.70;;;2.40;;
13805;SDS011;6974;53.606;9.872;2023-05-16T12:47:55;6.17;;;2.53;;
13805;SDS011;6974;53.606;9.872;2023-05-16T12:50:26;6.50;;;2.43;;
13805;SDS011;6974;53.606;9.872;2023-05-16T12:52:53;7.97;;;2.27;;
13805;SDS011;6974;53.606;9.872;2023-05-16T12:55:25;4.80;;;2.00;;
13805;SDS011;6974;53.606;9.872;2023-05-16T12:57:53;6.00;;;2.20;;
13805;SDS011;6974;53.606;9.872;2023-05-16T13:00:21;3.30;;;1.90;;
13805;SDS011;6974;53.606;9.872;2023-05-16T13:02:48;5.40;;;2.10;;
13805;SDS011;6974;53.606;9.872;2023-05-16T13:05:16;5.40;;;2.03;;
13805;SDS011;6974;53.606;9.872;2023-05-16T13:07:43;5.93;;;2.30;;
13805;SDS011;6974;53.606;9.872;2023-05-16T13:10:10;4.70;;;1.60;;
13805;SDS011;6974;53.606;9.872;2023-05-16T13:12:39;4.77;;;1.77;;
13805;SDS011;6974;53.606;9.872;2023-05-16T13:15:07;5.33;;;2.20;;
13805;SDS011;6974;53.606;9.872;2023-05-16T13:17:36;4.03;;;1.77;;
13805;SDS011;6974;53.606;9.872;2023-05-16T13:20:04;5.63;;;1.90;;
13805;SDS011;6974;53.606;9.872;2023-05-16T13:22:34;5.10;;;2.00;;
13805;SDS011;6974;53.606;9.872;2023-05-16T13:25:01;7.77;;;2.20;;
13805;SDS011;6974;53.606;9.872;2023-05-16T13:27:28;4.83;;;2.10;;
13805;SDS011;6974;53.606;9.872;2023-05-16T13:29:56;6.23;;;2.00;;
13805;SDS011;6974;53.606;9.872;2023-05-16T13:32:23;2.70;;;1.73;;
13805;SDS011;6974;53.606;9.872;2023-05-16T13:34:50;4.60;;;1.83;;
13805;SDS011;6974;53.606;9.872;2023-05-16T13:37:17;5.07;;;1.83;;
13805;SDS011;6974;53.606;9.872;2023-05-16T13:39:44;3.73;;;1.53;;
13805;SDS011;6974;53.606;9.872;2023-05-16T13:42:11;4.13;;;1.50;;
13805;SDS011;6974;53.606;9.872;2023-05-16T13:44:38;2.77;;;1.30;;
13805;SDS011;6974;53.606;9.872;2023-05-16T13:47:06;3.03;;;1.63;;
13805;SDS011;6974;53.606;9.872;2023-05-16T13:49:33;4.80;;;1.73;;
13805;SDS011;6974;53.606;9.872;2023-05-16T13:52:01;3.60;;;1.70;;
13805;SDS011;6974;53.606;9.872;2023-05-16T13:54:27;2.60;;;1.50;;
13805;SDS011;6974;53.606;9.872;2023-05-16T13:56:54;2.63;;;1.23;;
13805;SDS011;6974;53.606;9.872;2023-05-16T13:59:21;2.60;;;1.57;;
13805;SDS011;6974;53.606;9.872;2023-05-16T14:01:49;3.13;;;1.33;;
13805;SDS011;6974;53.606;9.872;2023-05-16T14:04:17;3.03;;;1.30;;
13805;SDS011;6974;53.606;9.872;2023-05-16T14:06:44;4.63;;;1.87;;
13805;SDS011;6974;53.606;9.872;2023-05-16T14:09:11;3.67;;;1.50;;
13805;SDS011;6974;53.606;9.872;2023-05-16T14:11:39;4.27;;;1.70;;
13805;SDS011;6974;53.606;9.872;2023-05-16T14:14:06;2.77;;;1.57;;
13805;SDS011;6974;53.606;9.872;2023-05-16T14:16:32;2.40;;;1.40;;
13805;SDS011;6974;53.606;9.872;2023-05-16T14:18:59;4.23;;;1.60;;
13805;SDS011;6974;53.606;9.872;2023-05-16T14:21:28;4.90;;;1.60;;
13805;SDS011;6974;53.606;9.872;2023-05-16T14:23:55;5.17;;;1.70;;
13805;SDS011;6974;53.606;9.872;2023-05-16T14:26:21;3.70;;;1.60;;
13805;SDS011;6974;53.606;9.872;2023-05-16T14:28:49;6.50;;;2.00;;
13805;SDS011;6974;53.606;9.872;2023-05-16T14:31:16;6.83;;;2.20;;
13805;SDS011;6974;53.606;9.872;2023-05-16T14:33:43;4.80;;;2.00;;
13805;SDS011;6974;53.606;9.872;2023-05-16T14:36:10;4.23;;;1.90;;
13805;SDS011;6974;53.606;9.872;2023-05-16T14:38:38;6.80;;;1.97;;
13805;SDS011;6974;53.606;9.872;2023-05-16T14:41:05;5.40;;;1.93;;
13805;SDS011;6974;53.606;9.872;2023-05-16T14:43:32;3.73;;;1.70;;
13805;SDS011;6974;53.606;9.872;2023-05-16T14:45:59;4.60;;;1.70;;
13805;SDS011;6974;53.606;9.872;2023-05-16T14:48:26;3.60;;;1.80;;
13805;SDS011;6974;53.606;9.872;2023-05-16T14:50:53;3.80;;;1.73;;
13805;SDS011;6974;53.606;9.872;2023-05-16T14:53:20;3.27;;;1.90;;
13805;SDS011;6974;53.606;9.872;2023-05-16T14:55:48;5.83;;;2.17;;
13805;SDS011;6974;53.606;9.872;2023-05-16T14:58:15;4.93;;;1.87;;
13805;SDS011;6974;53.606;9.872;2023-05-16T15:00:41;6.43;;;2.40;;
13805;SDS011;6974;53.606;9.872;2023-05-16T15:03:08;3.77;;;1.80;;